Station: Mandora  

  Atmospheric Gas Attenuation - ITU Rec 676-11   ----------------- dB/100km -----------------
Date Time Temp RH % AH g/m3 Dew Point Wind Direction Speed kph Gust kph Barometer mB Rainfall Since 9am 24GHz 47GHz 76GHz 122GHz 134GHz 241GHz
08/05 09:20 26.3 25 6.19 4.7 19 28 1018.8 0 14.0 19.6 26.5 69.0 58.6 200.2
08/05 09:10 25.6 26 6.19 4.7 24 32 1018.8 0 14.0 19.7 26.7 69.5 59.1 201.8
08/05 09:00 24.9 26 5.95 4.1 24 39 1018.8 0 13.6 19.5 26.2 68.1 57.1 194.7
08/05 08:50 25.1 27 6.25 4.8 20 28 1018.9 0 14.2 19.9 27.1 70.5 60.1 205.3
08/05 08:40 24.8 27 6.15 4.5 20 28 1019 0 14.0 19.8 26.8 69.9 59.2 202.3
08/05 08:30 24.4 28 6.23 4.7 19 37 1019.1 0 14.2 20.0 27.2 70.9 60.4 206.3
08/05 08:20 23.8 29 6.24 4.7 13 17 1019.1 0 14.2 20.2 27.4 71.5 60.9 208.1
08/05 08:10 23.2 29 6.03 4.2 22 30 1019.2 0 13.8 20.0 27.0 70.2 59.1 201.8
08/05 08:00 22.8 30 6.1 4.3 15 32 1019.3 0 13.9 20.2 27.3 71.2 60.2 205.4
08/05 07:50 22.1 31 6.05 4.2 17 24 1019.3 0 13.9 20.3 27.4 71.3 60.1 205.2
08/05 07:40 21.5 32 6.03 4.1 20 26 1019.3 0 13.8 20.4 27.5 71.7 60.4 206.0
08/05 07:30 20.8 33 5.97 4 15 24 1019.3 0 13.7 20.5 27.6 71.8 60.2 205.4
08/05 07:20 20.3 34 5.98 3.9 17 28 1019.2 0 13.8 20.6 27.8 72.3 60.7 207.0
08/05 07:10 20 34 5.88 3.7 15 19 1018.9 0 13.6 20.5 27.5 71.6 59.8 203.8
08/05 07:00 19.7 35 5.94 3.8 11 19 1018.8 0 13.7 20.6 27.8 72.4 60.7 206.9
08/05 06:50 19.4 35 5.84 3.6 11 15 1018.7 0 13.5 20.6 27.6 71.8 59.8 203.7
08/05 06:40 19.3 34 5.64 3.1 11 13 1018.5 0 13.1 20.3 26.9 70.0 57.7 196.2
08/05 06:30 19.2 34 5.61 3 11 19 1018.4 0 13.0 20.3 26.9 69.9 57.4 195.2
08/05 06:20 19.1 34 5.57 2.9 11 17 1018.3 0 13.0 20.2 26.8 69.6 57.0 193.9
08/05 06:10 19.2 34 5.61 3 9 15 1018.2 0 13.0 20.3 26.8 69.8 57.4 195.2
08/05 06:00 19.4 33 5.51 2.7 11 17 1018.2 0 12.8 20.1 26.5 68.8 56.1 190.9
08/05 05:50 19.6 33 5.57 2.9 11 15 1018.3 0 13.0 20.1 26.6 69.2 56.7 192.7
08/05 05:40 19.4 33 5.51 2.7 11 13 1018.2 0 12.8 20.1 26.5 68.8 56.1 190.9
08/05 05:30 19.6 32 5.4 2.5 11 20 1018.1 0 12.6 19.9 26.0 67.6 54.8 186.2
08/05 05:20 19.7 32 5.43 2.6 9 13 1018 0 12.7 19.9 26.1 67.8 55.1 187.1
08/05 05:10 19.8 32 5.47 2.6 11 13 1017.8 0 12.7 19.9 26.2 68.1 55.4 188.4
08/05 05:00 19.7 32 5.43 2.6 13 20 1017.8 0 12.7 19.9 26.1 67.8 55.0 187.1
08/05 04:50 20 31 5.36 2.4 11 13 1017.7 0 12.5 19.8 25.8 66.9 54.1 183.7
08/05 04:40 20 31 5.36 2.4 13 17 1017.7 0 12.5 19.8 25.8 66.9 54.1 183.7
08/05 04:30 20.1 31 5.39 2.5 11 15 1017.6 0 12.6 19.8 25.8 67.1 54.3 184.6
08/05 04:20 20.1 31 5.39 2.5 13 15 1017.5 0 12.6 19.8 25.8 67.1 54.3 184.6
08/05 04:10 20.2 31 5.42 2.5 13 17 1017.4 0 12.6 19.8 25.9 67.3 54.6 185.5
08/05 04:00 20.4 30 5.31 2.3 13 22 1017.3 0 12.4 19.6 25.5 66.2 53.3 180.9
08/05 03:50 20.6 30 5.37 2.4 15 19 1017.3 0 12.5 19.6 25.6 66.5 53.8 182.7
08/05 03:40 20.7 30 5.4 2.5 13 17 1017.4 0 12.6 19.7 25.7 66.7 54.0 183.6
08/05 03:30 20.7 30 5.4 2.5 11 19 1017.3 0 12.6 19.7 25.7 66.7 54.0 183.6
08/05 03:20 21 29 5.31 2.3 13 17 1017.4 0 12.4 19.5 25.3 65.7 52.9 179.6
08/05 03:10 21.1 29 5.34 2.4 13 20 1017.2 0 12.4 19.5 25.3 65.8 53.1 180.5
08/05 03:00 21.3 29 5.41 2.6 11 19 1017.1 0 12.6 19.5 25.5 66.3 53.7 182.7
08/05 02:50 21.4 28 5.25 2.2 13 19 1017.1 0 12.2 19.3 25.0 64.8 52.0 176.5
08/05 02:40 21.7 28 5.34 2.4 13 19 1017.1 0 12.4 19.4 25.2 65.4 52.7 179.2
08/05 02:30 21.8 28 5.37 2.5 13 24 1017.1 0 12.5 19.4 25.2 65.5 53.0 180.1
08/05 02:20 22 28 5.43 2.7 13 20 1017.1 0 12.6 19.4 25.4 65.9 53.5 181.9
08/05 02:10 22.1 28 5.47 2.8 19 26 1017.2 0 12.7 19.5 25.5 66.2 53.9 183.1
08/05 02:00 22.2 28 5.5 2.8 15 22 1017.2 0 12.7 19.5 25.5 66.3 54.1 184.0
08/05 01:50 22.2 28 5.5 2.8 11 20 1017.4 0 12.7 19.5 25.5 66.4 54.1 184.1
08/05 01:40 22.5 27 5.39 2.6 17 26 1017.3 0 12.5 19.3 25.1 65.2 52.8 179.3
08/05 01:30 22.7 27 5.45 2.8 15 24 1017.1 0 12.6 19.3 25.2 65.5 53.2 181.1
08/05 01:20 22.9 27 5.52 2.9 15 22 1017.1 0 12.7 19.3 25.4 65.9 53.8 183.2
08/05 01:10 22.9 28 5.72 3.4 17 20 1017.2 0 13.2 19.6 26.0 67.7 56.0 190.6
08/05 01:00 22.9 28 5.72 3.4 13 22 1017.3 0 13.2 19.6 26.0 67.7 56.0 190.6
08/05 00:50 23 28 5.75 3.5 11 13 1017.3 0 13.2 19.6 26.1 67.8 56.2 191.5
08/05 00:40 23 28 5.75 3.5 15 20 1017.3 0 13.2 19.6 26.1 67.8 56.2 191.5
08/05 00:30 22.9 29 5.93 3.9 15 24 1017.4 0 13.6 19.9 26.7 69.5 58.2 198.5
08/05 00:20 22.7 29 5.86 3.8 13 19 1017.4 0 13.5 19.8 26.5 69.0 57.6 196.3
08/05 00:10 22.7 30 6.06 4.2 15 22 1017.4 0 13.9 20.1 27.2 70.8 59.7 203.8
08/05 00:00 22.9 29 5.93 3.9 13 24 1017.4 0 13.6 19.9 26.7 69.5 58.2 198.5
07/05 23:50 23 30 6.17 4.5 15 20 1017.4 0 14.1 20.2 27.4 71.5 60.7 207.2
07/05 23:40 23.2 29 6.03 4.2 15 22 1017.3 0 13.8 20.0 26.9 70.1 59.0 201.5
07/05 23:30 23.2 30 6.24 4.7 15 26 1017.3 0 14.2 20.2 27.6 71.9 61.3 209.3
07/05 23:20 23 31 6.37 5 13 17 1017.4 0 14.5 20.4 28.1 73.2 62.8 214.8
07/05 23:10 22.9 31 6.33 4.9 17 22 1017.4 0 14.4 20.4 28.0 72.9 62.5 213.5
07/05 23:00 22.9 32 6.54 5.3 13 22 1017.4 0 14.9 20.7 28.7 74.8 64.7 221.5
07/05 22:50 22.9 32 6.54 5.3 11 15 1017.4 0 14.9 20.7 28.7 74.8 64.7 221.5
07/05 22:40 22.9 33 6.74 5.8 13 17 1017.4 0 15.3 21.0 29.3 76.5 66.9 229.1
07/05 22:30 22.9 33 6.74 5.8 13 20 1017.4 0 15.3 21.0 29.3 76.5 66.9 229.1
07/05 22:20 23.2 33 6.86 6 11 13 1017.5 0 15.5 21.1 29.6 77.3 68.0 232.9
07/05 22:10 23.5 32 6.77 5.9 11 15 1017.4 0 15.3 20.9 29.2 76.2 66.7 228.6
07/05 22:00 23.9 31 6.71 5.8 13 20 1017.3 0 15.2 20.7 28.9 75.3 65.8 225.2
07/05 21:50 24.2 31 6.82 6 13 24 1017.1 0 15.4 20.8 29.1 76.0 66.7 228.6
07/05 21:40 24.1 31 6.78 5.9 15 20 1017.1 0 15.3 20.7 29.0 75.8 66.3 227.3
07/05 21:30 24 32 6.96 6.3 13 20 1017 0 15.7 21.0 29.6 77.4 68.4 234.4
07/05 21:20 23.4 34 7.15 6.7 13 19 1016.9 0 16.1 21.4 30.5 79.7 71.0 243.4
07/05 21:10 23.3 34 7.11 6.6 11 13 1016.9 0 16.0 21.4 30.4 79.4 70.6 242.2
07/05 21:00 23.2 34 7.07 6.5 9 15 1016.9 0 16.0 21.3 30.3 79.2 70.3 240.9
07/05 20:50 23.3 34 7.11 6.6 9 11 1017 0 16.0 21.4 30.4 79.4 70.6 242.2
07/05 20:40 23.6 33 7.02 6.4 9 11 1016.9 0 15.8 21.2 30.0 78.3 69.4 237.8
07/05 20:30 23.7 33 7.06 6.5 9 15 1016.9 0 15.9 21.2 30.1 78.6 69.7 239.1
07/05 20:20 23.9 33 7.14 6.7 9 11 1016.8 0 16.1 21.3 30.3 79.1 70.4 241.6
07/05 20:10 24.1 32 7 6.4 9 13 1016.7 0 15.8 21.0 29.7 77.7 68.7 235.6
07/05 20:00 24.3 32 7.08 6.6 9 15 1016.6 0 15.9 21.1 29.9 78.2 69.4 238.1
07/05 19:50 24.4 32 7.12 6.6 9 11 1016.5 0 16.0 21.1 30.0 78.4 69.7 239.3
07/05 19:40 24.5 32 7.16 6.7 7 11 1016.4 0 16.1 21.1 30.1 78.7 70.1 240.5
07/05 19:30 24.7 32 7.24 6.9 9 15 1016.2 0 16.2 21.2 30.3 79.2 70.8 242.9
07/05 19:20 24.8 32 7.28 7 9 11 1016.1 0 16.3 21.2 30.4 79.4 71.1 244.1
07/05 19:10 25.1 31 7.18 6.8 9 11 1016 0 16.1 21.0 29.9 78.2 69.8 239.4
07/05 19:00 25.4 30 7.06 6.6 9 13 1015.9 0 15.8 20.8 29.4 76.9 68.2 234.0
07/05 18:50 25.8 30 7.22 6.9 7 11 1015.9 0 16.2 20.9 29.8 77.9 69.6 238.9
07/05 18:40 25.8 30 7.22 6.9 9 11 1015.7 0 16.2 20.9 29.8 77.9 69.6 238.9
07/05 18:30 26.2 29 7.14 6.8 7 11 1015.6 0 16.0 20.7 29.4 76.8 68.4 234.7
07/05 18:20 26.5 28 7.01 6.5 7 11 1015.6 0 15.7 20.5 28.9 75.4 66.8 229.1
07/05 18:10 26.9 28 7.17 6.9 9 11 1015.5 0 16.0 20.6 29.3 76.4 68.1 233.8
07/05 18:00 27.2 27 7.03 6.6 9 17 1015.4 0 15.7 20.3 28.7 75.0 66.4 227.8
07/05 17:50 27.6 27 7.18 6.9 9 11 1015.2 0 16.0 20.4 29.0 75.9 67.6 232.2
07/05 17:40 28 26 7.07 6.7 9 11 1015 0 15.8 20.2 28.5 74.6 66.1 227.0
07/05 17:30 28.4 25 6.95 6.5 9 15 1014.9 0 15.5 20.0 28.0 73.2 64.6 221.6
07/05 17:20 29 24 6.89 6.4 13 19 1014.7 0 15.4 19.8 27.6 72.2 63.5 217.9
07/05 17:10 29.4 24 7.05 6.7 15 19 1014.5 0 15.7 19.9 28.0 73.1 64.8 222.5
07/05 17:00 29.9 24 7.24 7.2 15 26 1014.4 0 16.0 20.0 28.4 74.3 66.3 227.9
07/05 16:50 30.2 23 7.05 6.8 17 20 1014.3 0 15.6 19.7 27.7 72.4 64.2 220.3

Last Refresh: 08-May-2026 11:03:38

Bureau of Meteorology